Old Hickory Observed Data For Previous 48 Hours

Caption
Day and Hour Reservoir Elevation (behind dam)* Tailwater Elevation (below dam)* Average Hourly Discharge*
7/14/2018 1 AM CDT 444.91 388.45 5,800
7/14/2018 2 AM CDT 444.93 388.00 5,800
7/14/2018 3 AM CDT 444.94 387.84 5,800
7/14/2018 4 AM CDT 444.96 387.34 5,700
7/14/2018 5 AM CDT 444.96 387.14 5,700
7/14/2018 6 AM CDT 444.99 387.16 5,700
7/14/2018 7 AM CDT 444.93 387.03 5,700
7/14/2018 8 AM CDT 444.91 387.01 5,700
7/14/2018 9 AM CDT 444.86 386.96 5,700
7/14/2018 10 AM CDT 444.81 386.91 5,700
7/14/2018 11 AM CDT 444.81 386.91 5,700
7/14/2018 12 PM CDT 444.91 386.91 5,700
7/14/2018 1 PM CDT 444.87 387.17 5,700
7/14/2018 2 PM CDT 444.91 388.51 14,000
7/14/2018 3 PM CDT 444.76 389.16 11,800
7/14/2018 4 PM CDT 444.76 389.36 11,800
7/14/2018 5 PM CDT 444.67 389.87 12,000
7/14/2018 6 PM CDT 444.62 389.92 12,200
7/14/2018 7 PM CDT 444.61 389.84 12,000
7/14/2018 8 PM CDT 444.61 389.74 12,000
7/14/2018 9 PM CDT 444.71 388.00 5,800
7/14/2018 10 PM CDT 444.81 387.50 5,700
7/14/2018 11 PM CDT 444.97 387.19 5,700
7/15/2018 12 AM CDT 445.00 387.00 5,700
7/15/2018 1 AM CDT 445.03 386.75 5,600
7/15/2018 2 AM CDT 445.00 386.56 5,600
7/15/2018 3 AM CDT 444.95 386.53 5,600
7/15/2018 4 AM CDT 444.93 386.48 5,600
7/15/2018 5 AM CDT 444.85 386.48 5,600
7/15/2018 6 AM CDT 444.81 386.48 5,600
7/15/2018 7 AM CDT 444.76 386.66 5,700
7/15/2018 8 AM CDT 444.79 386.69 5,700
7/15/2018 9 AM CDT 444.74 387.14 5,700
7/15/2018 10 AM CDT 444.72 387.02 5,700
7/15/2018 11 AM CDT 445.03 387.33 5,700
7/15/2018 12 PM CDT 445.03 387.13 5,700
7/15/2018 1 PM CDT 444.88 388.58 11,600
7/15/2018 2 PM CDT 444.83 389.13 11,800
7/15/2018 3 PM CDT 444.81 389.31 11,800
7/15/2018 4 PM CDT 444.73 389.43 11,800
7/15/2018 5 PM CDT 444.68 389.48 12,000
7/15/2018 6 PM CDT 444.62 389.52 12,000
7/15/2018 7 PM CDT 444.76 389.70 12,000
7/15/2018 8 PM CDT 444.88 388.17 5,900
7/15/2018 9 PM CDT 444.95 387.71 5,800
7/15/2018 10 PM CDT 445.03 387.39 5,700
7/15/2018 11 PM CDT 445.10 386.99 5,700
7/16/2018 12 AM CDT 445.18 386.66 5,600

Elevations are in feet above sea level. Discharges are in cubic feet per second and are reported at the end of the hour.